Time;durP1;ratioP1;P1;durP2;ratioP2;P2;SDS_P1;SDS_P2;PMS_P1;PMS_P2;Temp;Humidity;BMP_temperature;BMP_pressure;BME280_temperature;BME280_humidity;BME280_pressure;Samples;Min_cycle;Max_cycle;Signal;HPM_P1;HPM_P2
2022/03/17 00:00:27;;;;;;;22.00;17.75;;;11.80;99.90;;;;;;5075225;28;20029;-75
2022/03/17 00:02:54;;;;;;;22.08;18.85;;;11.80;99.90;;;;;;5081459;28;20067;-75
2022/03/17 00:05:20;;;;;;;22.30;19.35;;;11.80;99.90;;;;;;5097991;28;20031;-74
2022/03/17 00:07:46;;;;;;;23.02;19.35;;;11.80;99.90;;;;;;5081341;28;20027;-75
2022/03/17 00:10:15;;;;;;;25.88;20.63;;;11.80;99.90;;;;;;5075824;28;20047;-75
2022/03/17 00:12:44;;;;;;;25.45;19.65;;;11.80;99.90;;;;;;5078293;28;20028;-74
2022/03/17 00:15:11;;;;;;;25.23;19.73;;;11.80;99.90;;;;;;5076580;28;20015;-74
2022/03/17 00:17:38;;;;;;;23.35;20.67;;;11.80;99.90;;;;;;5063500;28;20050;-75
2022/03/17 00:20:07;;;;;;;29.08;22.35;;;11.80;99.90;;;;;;5094898;28;20020;-75
2022/03/17 00:22:34;;;;;;;25.95;20.85;;;11.80;99.90;;;;;;5060944;28;20078;-75
2022/03/17 00:25:01;;;;;;;22.13;18.48;;;11.80;99.90;;;;;;5080738;28;20022;-75
2022/03/17 00:27:27;;;;;;;24.65;20.23;;;11.70;99.90;;;;;;5079822;28;20035;-77
2022/03/17 00:29:54;;;;;;;21.38;18.85;;;11.80;99.90;;;;;;5062036;28;20031;-77
2022/03/17 00:32:20;;;;;;;26.42;23.27;;;11.70;99.90;;;;;;5080263;28;20135;-77
2022/03/17 00:37:32;;;;;;;27.08;21.88;;;11.70;99.90;;;;;;5062008;28;20507;-77
2022/03/17 00:39:58;;;;;;;28.50;23.60;;;11.70;99.90;;;;;;5094997;28;20475;-77
2022/03/17 00:42:24;;;;;;;26.88;22.92;;;11.60;99.90;;;;;;5064320;28;20035;-77
2022/03/17 00:44:51;;;;;;;24.48;21.23;;;11.70;99.90;;;;;;5099760;28;20020;-77
2022/03/17 00:47:17;;;;;;;24.48;20.48;;;11.70;99.90;;;;;;5096161;28;20028;-77
2022/03/17 00:49:44;;;;;;;27.48;22.23;;;11.70;99.90;;;;;;5075752;28;20023;-77
2022/03/17 00:52:11;;;;;;;26.70;21.92;;;11.60;99.90;;;;;;5101253;27;21165;-77
2022/03/17 00:54:39;;;;;;;25.58;21.17;;;11.60;99.90;;;;;;5101825;27;20035;-77
2022/03/17 00:57:09;;;;;;;23.08;19.20;;;11.60;99.90;;;;;;5099465;27;20028;-77
2022/03/17 00:59:36;;;;;;;29.65;25.20;;;11.60;99.90;;;;;;5064194;28;20035;-77
2022/03/17 01:02:04;;;;;;;28.63;21.85;;;11.60;99.90;;;;;;5085692;27;20016;-78
2022/03/17 01:04:30;;;;;;;26.15;21.08;;;11.60;99.90;;;;;;5104206;27;20467;-77
2022/03/17 01:06:57;;;;;;;26.00;20.30;;;11.60;99.90;;;;;;5103554;27;20027;-78
2022/03/17 01:09:23;;;;;;;28.77;23.52;;;11.50;99.90;;;;;;5099227;27;20040;-78
2022/03/17 01:11:50;;;;;;;32.65;25.33;;;11.50;99.90;;;;;;5083520;27;20034;-77
2022/03/17 01:14:16;;;;;;;24.77;21.25;;;11.50;99.90;;;;;;5108476;27;20038;-77
2022/03/17 01:16:43;;;;;;;26.27;20.83;;;11.50;99.90;;;;;;5085133;27;20034;-77
2022/03/17 01:19:09;;;;;;;26.52;21.15;;;11.50;99.90;;;;;;5080432;27;20498;-77
2022/03/17 01:21:36;;;;;;;27.90;23.35;;;11.50;99.90;;;;;;5062997;27;20462;-77
2022/03/17 01:24:03;;;;;;;31.10;23.55;;;11.50;99.90;;;;;;5103272;27;20031;-77
2022/03/17 01:26:30;;;;;;;29.58;24.92;;;11.40;99.90;;;;;;5066097;28;20023;-78
2022/03/17 01:28:56;;;;;;;27.13;22.77;;;11.40;99.90;;;;;;5051606;27;20024;-78
2022/03/17 01:31:23;;;;;;;28.95;23.35;;;11.40;99.90;;;;;;5078824;27;20034;-78
2022/03/17 01:33:51;;;;;;;24.55;19.90;;;11.40;99.90;;;;;;5102002;27;20077;-77
2022/03/17 01:36:19;;;;;;;25.33;19.77;;;11.30;99.90;;;;;;5103063;27;20391;-78
2022/03/17 01:38:46;;;;;;;29.13;23.52;;;11.30;99.90;;;;;;5083366;27;20476;-77
2022/03/17 01:41:13;;;;;;;29.75;24.05;;;11.30;99.90;;;;;;5096839;27;20019;-78
2022/03/17 01:43:40;;;;;;;28.25;22.27;;;11.30;99.90;;;;;;5085968;27;20027;-78
2022/03/17 01:46:07;;;;;;;26.10;21.98;;;11.30;99.90;;;;;;5101607;27;20031;-78
2022/03/17 01:48:33;;;;;;;26.13;21.83;;;11.40;99.90;;;;;;5103323;27;20020;-78
2022/03/17 01:51:02;;;;;;;27.35;21.73;;;11.40;99.90;;;;;;5069207;28;20036;-78
2022/03/17 01:53:28;;;;;;;27.15;23.02;;;11.40;99.90;;;;;;5065168;27;20032;-78
2022/03/17 01:55:57;;;;;;;27.75;22.67;;;11.50;99.90;;;;;;5102718;27;20020;-78
2022/03/17 01:58:24;;;;;;;26.58;21.80;;;11.50;99.90;;;;;;5084573;27;20027;-78
2022/03/17 02:00:52;;;;;;;27.45;22.73;;;11.50;99.90;;;;;;5077404;27;20027;-78
2022/03/17 02:03:19;;;;;;;32.47;24.88;;;11.50;99.90;;;;;;5100401;27;20008;-78
2022/03/17 02:05:46;;;;;;;30.10;23.77;;;11.60;99.90;;;;;;5083204;27;20415;-78
2022/03/17 02:08:14;;;;;;;26.98;21.02;;;11.60;99.90;;;;;;5080674;28;20027;-78
2022/03/17 02:13:26;;;;;;;24.13;19.50;;;11.60;99.90;;;;;;5083171;27;20027;-78
2022/03/17 02:15:56;;;;;;;23.50;19.85;;;11.60;99.90;;;;;;5079371;28;20024;-78
2022/03/17 02:18:23;;;;;;;23.70;19.63;;;11.60;99.90;;;;;;5100528;27;20035;-78
2022/03/17 02:20:50;;;;;;;26.42;20.85;;;11.60;99.90;;;;;;5063225;28;20031;-78
2022/03/17 02:26:04;;;;;;;25.67;21.90;;;11.60;99.90;;;;;;5096837;27;20040;-77
2022/03/17 02:28:32;;;;;;;28.95;22.63;;;11.70;99.90;;;;;;5080412;27;20024;-77
2022/03/17 02:30:59;;;;;;;28.55;23.83;;;11.70;99.90;;;;;;5081872;28;20042;-78
2022/03/17 02:33:26;;;;;;;25.30;20.90;;;11.70;99.90;;;;;;5102476;27;20028;-78
2022/03/17 02:35:53;;;;;;;25.65;20.05;;;11.70;99.90;;;;;;5098585;27;20498;-78
2022/03/17 02:38:21;;;;;;;23.30;18.38;;;11.70;99.90;;;;;;5079663;28;20028;-77
2022/03/17 02:40:52;;;;;;;25.95;20.65;;;11.70;99.90;;;;;;5095684;27;20031;-78
2022/03/17 02:43:19;;;;;;;28.88;21.50;;;11.70;99.90;;;;;;5100131;27;20101;-78
2022/03/17 02:45:47;;;;;;;24.95;20.10;;;11.70;99.90;;;;;;5099094;27;20345;-77
2022/03/17 02:48:15;;;;;;;28.95;22.77;;;11.70;99.90;;;;;;5099844;27;20023;-77
2022/03/17 02:50:42;;;;;;;22.67;19.50;;;11.70;99.90;;;;;;5065847;28;20028;-78
2022/03/17 02:53:11;;;;;;;26.60;21.77;;;11.70;99.90;;;;;;5099227;27;20050;-78
2022/03/17 02:55:39;;;;;;;21.92;18.02;;;11.70;99.90;;;;;;5080681;28;20043;-78
2022/03/17 02:58:07;;;;;;;21.35;17.33;;;11.70;99.90;;;;;;5080186;28;20038;-78
2022/03/17 03:00:37;;;;;;;20.85;16.95;;;11.70;99.90;;;;;;5077977;28;20012;-78
2022/03/17 03:03:07;;;;;;;20.17;16.65;;;11.70;99.90;;;;;;5098954;27;20024;-78
2022/03/17 03:05:34;;;;;;;23.42;17.92;;;11.70;99.90;;;;;;5080500;28;20690;-78
2022/03/17 03:08:02;;;;;;;23.77;18.58;;;11.80;99.90;;;;;;5097689;27;20038;-78
2022/03/17 03:10:29;;;;;;;25.77;19.83;;;11.80;99.90;;;;;;5077956;28;20845;-77
2022/03/17 03:12:55;;;;;;;23.80;18.23;;;11.80;99.90;;;;;;5080338;28;20501;-78
2022/03/17 03:15:21;;;;;;;22.48;18.52;;;11.80;99.90;;;;;;5079264;28;20101;-78
2022/03/17 03:17:48;;;;;;;24.45;18.52;;;11.80;99.90;;;;;;5095937;27;20023;-77
2022/03/17 03:20:14;;;;;;;26.77;21.55;;;11.90;99.90;;;;;;5076138;28;20031;-78
2022/03/17 03:22:40;;;;;;;27.90;21.40;;;11.90;99.90;;;;;;5096199;28;20031;-78
2022/03/17 03:25:08;;;;;;;27.75;20.50;;;11.90;99.90;;;;;;5095562;28;20455;-78
2022/03/17 03:27:39;;;;;;;29.50;21.70;;;11.80;99.90;;;;;;5080056;28;20036;-78
2022/03/17 03:30:14;;;;;;;27.25;20.75;;;11.90;99.90;;;;;;5096881;27;20051;-78
2022/03/17 03:32:42;;;;;;;28.98;22.13;;;11.80;99.90;;;;;;5079897;28;20387;-78
2022/03/17 03:37:54;;;;;;;30.23;22.02;;;11.80;99.90;;;;;;5083043;28;20023;-78
2022/03/17 03:40:21;;;;;;;37.78;24.92;;;11.70;99.90;;;;;;5065884;28;20012;-78
2022/03/17 03:42:47;;;;;;;33.92;23.83;;;11.60;99.90;;;;;;5082659;28;20039;-79
2022/03/17 03:45:14;;;;;;;34.72;23.13;;;11.50;99.90;;;;;;5078506;28;20008;-78
2022/03/17 03:47:40;;;;;;;34.50;23.25;;;11.50;99.90;;;;;;5076390;28;20017;-78
2022/03/17 03:50:07;;;;;;;30.95;22.02;;;11.40;99.90;;;;;;5079817;28;20023;-78
2022/03/17 03:52:33;;;;;;;31.85;22.52;;;11.30;99.90;;;;;;5064309;28;20028;-78
2022/03/17 03:55:00;;;;;;;39.70;26.95;;;11.30;99.90;;;;;;5081321;28;20468;-78
2022/03/17 03:57:26;;;;;;;34.58;26.25;;;11.30;99.90;;;;;;5082693;28;20032;-78
2022/03/17 03:59:53;;;;;;;30.25;23.50;;;11.20;99.90;;;;;;5079616;28;20031;-79
2022/03/17 04:02:19;;;;;;;32.53;23.67;;;11.20;99.90;;;;;;5082210;28;20070;-79
2022/03/17 04:04:46;;;;;;;27.80;21.08;;;11.20;99.90;;;;;;5081655;28;20048;-79
2022/03/17 04:07:12;;;;;;;28.83;21.50;;;11.10;99.90;;;;;;5083763;28;20047;-79
2022/03/17 04:09:41;;;;;;;22.73;18.90;;;11.10;99.90;;;;;;5051053;28;20593;-79
2022/03/17 04:12:10;;;;;;;26.20;18.80;;;11.10;99.90;;;;;;5101082;28;20042;-79
2022/03/17 04:14:36;;;;;;;20.92;14.95;;;11.10;99.90;;;;;;5098576;28;20024;-79
2022/03/17 04:17:04;;;;;;;16.77;12.93;;;11.10;99.90;;;;;;5099077;28;20024;-78
2022/03/17 04:19:31;;;;;;;15.20;12.68;;;11.10;99.90;;;;;;5080813;28;20545;-78
2022/03/17 04:21:58;;;;;;;15.32;12.32;;;11.00;99.90;;;;;;5063928;28;20027;-79
2022/03/17 04:24:24;;;;;;;13.65;11.02;;;11.00;99.90;;;;;;5066101;28;20014;-79
2022/03/17 04:26:50;;;;;;;15.05;11.52;;;10.90;99.90;;;;;;5104856;27;20027;-79
2022/03/17 04:29:17;;;;;;;11.68;9.55;;;10.90;99.90;;;;;;5087990;28;20040;-79
2022/03/17 04:31:46;;;;;;;11.15;6.32;;;10.80;99.90;;;;;;5103771;27;20036;-78
2022/03/17 04:34:13;;;;;;;5.88;3.83;;;10.70;99.90;;;;;;5072417;27;20043;-79
2022/03/17 04:36:39;;;;;;;3.72;2.90;;;10.60;99.90;;;;;;5105777;27;20031;-78
2022/03/17 04:39:10;;;;;;;3.10;2.17;;;10.50;99.90;;;;;;5069134;28;20102;-78
2022/03/17 04:41:37;;;;;;;3.72;2.28;;;10.40;99.90;;;;;;5071182;28;20020;-78
2022/03/17 04:44:04;;;;;;;4.25;3.00;;;10.30;99.90;;;;;;5084325;28;20021;-78
2022/03/17 04:46:30;;;;;;;4.53;2.03;;;10.30;99.90;;;;;;5085331;28;20486;-79
2022/03/17 04:48:57;;;;;;;3.53;1.75;;;10.20;99.90;;;;;;5086793;28;20028;-78
2022/03/17 04:51:23;;;;;;;4.22;2.13;;;10.10;99.90;;;;;;5084699;28;20028;-78
2022/03/17 04:53:50;;;;;;;3.70;2.88;;;10.00;99.90;;;;;;5075302;27;20034;-79
2022/03/17 04:56:17;;;;;;;4.63;2.65;;;10.00;99.90;;;;;;5083181;28;20024;-78
2022/03/17 04:58:45;;;;;;;4.05;2.20;;;10.00;99.90;;;;;;5084136;28;20364;-78
2022/03/17 05:01:13;;;;;;;7.32;2.90;;;9.90;99.90;;;;;;5102639;27;20371;-78
2022/03/17 05:03:40;;;;;;;5.95;3.72;;;9.90;99.90;;;;;;5086049;28;20019;-79
2022/03/17 05:06:13;;;;;;;6.57;4.00;;;9.80;99.90;;;;;;5098594;27;20028;-78
2022/03/17 05:08:41;;;;;;;4.70;3.53;;;9.70;99.90;;;;;;5100728;27;20022;-78
2022/03/17 05:11:09;;;;;;;7.40;3.50;;;9.70;99.90;;;;;;5098731;27;20039;-78
2022/03/17 05:13:36;;;;;;;11.70;5.93;;;9.70;99.90;;;;;;5056002;28;20019;-78
2022/03/17 05:16:04;;;;;;;10.13;5.35;;;9.70;99.90;;;;;;5102873;28;20032;-78
2022/03/17 05:18:32;;;;;;;14.50;6.22;;;9.60;99.90;;;;;;5065603;28;20035;-78
2022/03/17 05:20:58;;;;;;;9.65;5.53;;;9.60;99.90;;;;;;5065265;28;20044;-78
2022/03/17 05:23:25;;;;;;;12.70;5.72;;;9.60;99.90;;;;;;5102017;28;20153;-78
2022/03/17 05:25:52;;;;;;;10.68;6.85;;;9.50;99.90;;;;;;5099947;27;20016;-79
2022/03/17 05:28:19;;;;;;;8.00;6.03;;;9.50;99.90;;;;;;5098531;27;20031;-78
2022/03/17 05:30:46;;;;;;;8.77;5.57;;;9.50;99.90;;;;;;5082050;27;20032;-78
2022/03/17 05:33:12;;;;;;;11.07;6.57;;;9.50;99.90;;;;;;5099471;27;20407;-78
2022/03/17 05:35:40;;;;;;;10.25;5.75;;;9.50;99.90;;;;;;5101678;27;20020;-78
2022/03/17 05:38:08;;;;;;;10.57;6.43;;;9.50;99.90;;;;;;5083610;27;20042;-79
2022/03/17 05:40:34;;;;;;;14.63;7.60;;;9.50;99.90;;;;;;5062229;28;20023;-76
2022/03/17 05:43:03;;;;;;;14.52;7.20;;;9.50;99.90;;;;;;5100648;27;20026;-78
2022/03/17 05:45:30;;;;;;;12.85;6.22;;;9.50;99.90;;;;;;5105349;27;20047;-76
2022/03/17 05:47:59;;;;;;;13.25;5.53;;;9.50;99.90;;;;;;5064598;27;20035;-77
2022/03/17 05:50:29;;;;;;;12.45;5.38;;;9.40;99.90;;;;;;5098561;27;20024;-77
2022/03/17 05:52:55;;;;;;;16.15;4.68;;;9.40;99.90;;;;;;5101014;27;20494;-77
2022/03/17 05:55:24;;;;;;;12.95;4.55;;;9.40;99.90;;;;;;5100202;27;20031;-77
2022/03/17 05:57:53;;;;;;;15.07;4.45;;;9.30;99.90;;;;;;5098439;27;20016;-76
2022/03/17 06:00:23;;;;;;;11.00;3.17;;;9.40;99.90;;;;;;5098714;27;20038;-78
2022/03/17 06:02:50;;;;;;;11.77;2.58;;;9.30;99.90;;;;;;5102733;28;20038;-78
2022/03/17 06:05:17;;;;;;;14.73;3.55;;;9.30;99.90;;;;;;5072077;28;20039;-77
2022/03/17 06:07:48;;;;;;;10.73;3.03;;;9.30;99.90;;;;;;5080231;28;20032;-78
2022/03/17 06:10:17;;;;;;;10.60;2.72;;;9.20;99.90;;;;;;5092634;27;20059;-78
2022/03/17 06:12:45;;;;;;;14.00;2.65;;;9.10;99.90;;;;;;5086505;28;20020;-78
2022/03/17 06:15:12;;;;;;;10.77;2.78;;;9.10;99.90;;;;;;5114630;27;20032;-77
2022/03/17 06:17:50;;;;;;;10.60;2.05;;;9.10;99.90;;;;;;5080937;27;20424;-78
2022/03/17 06:20:19;;;;;;;7.78;1.52;;;9.10;99.90;;;;;;5079290;28;20475;-78
2022/03/17 06:22:48;;;;;;;6.93;1.30;;;9.10;99.90;;;;;;5107992;27;20016;-77
2022/03/17 06:25:16;;;;;;;16.98;2.25;;;9.10;99.90;;;;;;5083494;27;20042;-78
2022/03/17 06:27:44;;;;;;;9.63;2.08;;;9.00;99.90;;;;;;5064340;27;20028;-76
2022/03/17 06:30:35;;;;;;;14.18;1.80;;;9.00;99.90;;;;;;5096901;27;20462;-76
2022/03/17 06:33:01;;;;;;;12.45;1.48;;;9.00;99.90;;;;;;5064969;28;20034;-76
2022/03/17 06:35:29;;;;;;;12.95;2.40;;;9.00;99.90;;;;;;5082351;27;20023;-76
2022/03/17 06:37:58;;;;;;;7.90;1.23;;;9.00;99.90;;;;;;5082810;27;20043;-76
2022/03/17 06:40:26;;;;;;;7.97;1.88;;;9.00;99.90;;;;;;5095008;27;20024;-76
2022/03/17 06:42:55;;;;;;;12.93;1.73;;;9.00;99.90;;;;;;5082962;27;20033;-76
2022/03/17 06:45:22;;;;;;;10.25;1.17;;;9.00;99.90;;;;;;5063044;28;20031;-76
2022/03/17 06:47:48;;;;;;;7.43;1.40;;;9.00;99.90;;;;;;5098097;27;20031;-76
2022/03/17 06:50:17;;;;;;;7.60;1.05;;;9.00;99.90;;;;;;5057663;28;20433;-76
2022/03/17 06:52:43;;;;;;;9.63;1.65;;;9.00;99.90;;;;;;5097851;27;20019;-76
2022/03/17 06:55:11;;;;;;;7.60;1.10;;;9.00;99.90;;;;;;5098742;27;20042;-76
2022/03/17 06:57:38;;;;;;;7.32;1.80;;;9.00;99.90;;;;;;5099533;27;20034;-76
2022/03/17 07:00:10;;;;;;;7.78;1.55;;;9.00;99.90;;;;;;5094037;27;20023;-78
2022/03/17 07:02:36;;;;;;;6.93;0.90;;;9.00;99.90;;;;;;5096513;27;20019;-75
2022/03/17 07:05:04;;;;;;;7.30;1.15;;;9.00;99.90;;;;;;5077029;28;20608;-75
2022/03/17 07:07:31;;;;;;;11.50;1.65;;;9.00;99.90;;;;;;5081776;28;20028;-75
2022/03/17 07:09:58;;;;;;;7.72;1.30;;;9.00;99.90;;;;;;5089220;27;20048;-76
2022/03/17 07:12:25;;;;;;;11.63;1.08;;;9.00;99.90;;;;;;5077171;28;20387;-76
2022/03/17 07:14:53;;;;;;;10.18;1.42;;;9.00;99.90;;;;;;5079979;27;20028;-76
2022/03/17 07:17:22;;;;;;;9.98;1.48;;;9.00;99.90;;;;;;5096358;27;20024;-76
2022/03/17 07:19:58;;;;;;;12.13;1.70;;;9.00;99.90;;;;;;5042064;27;20086;-77
2022/03/17 07:22:26;;;;;;;16.88;2.90;;;9.00;99.90;;;;;;5098946;27;20027;-76
2022/03/17 07:24:53;;;;;;;11.30;1.40;;;9.00;99.90;;;;;;5099926;27;21366;-76
2022/03/17 07:27:21;;;;;;;13.70;2.22;;;9.00;99.90;;;;;;5079660;28;20484;-77
2022/03/17 07:29:48;;;;;;;9.82;1.10;;;8.90;99.90;;;;;;5094245;27;20034;-76
2022/03/17 07:32:15;;;;;;;12.00;1.00;;;8.90;99.90;;;;;;5079330;28;20019;-76
2022/03/17 07:34:42;;;;;;;15.20;1.90;;;8.90;99.90;;;;;;5067951;28;20023;-77
2022/03/17 07:37:09;;;;;;;9.75;1.20;;;8.90;99.90;;;;;;5079944;28;20046;-76
2022/03/17 07:39:36;;;;;;;11.27;1.23;;;8.90;99.90;;;;;;5057168;27;20044;-76
2022/03/17 07:42:04;;;;;;;11.13;1.40;;;8.90;99.90;;;;;;5078527;28;20039;-76
2022/03/17 07:44:50;;;;;;;16.48;1.73;;;8.90;99.90;;;;;;5065146;28;20411;-76
2022/03/17 07:47:47;;;;;;;10.43;1.52;;;8.90;99.90;;;;;;5065248;28;20044;-76
2022/03/17 07:50:14;;;;;;;11.05;1.58;;;9.00;99.90;;;;;;5094857;28;20019;-76
2022/03/17 07:52:42;;;;;;;11.13;1.08;;;9.10;99.90;;;;;;5098191;27;20591;-76
2022/03/17 07:55:09;;;;;;;10.95;1.02;;;9.20;99.90;;;;;;5097057;28;20019;-76
2022/03/17 07:57:36;;;;;;;7.18;0.68;;;9.20;99.90;;;;;;5099484;28;20023;-76
2022/03/17 08:00:05;;;;;;;7.75;0.80;;;9.30;99.90;;;;;;5097554;27;20019;-76
2022/03/17 08:02:42;;;;;;;8.38;1.00;;;9.30;99.90;;;;;;5067876;27;20015;-75
2022/03/17 08:05:14;;;;;;;7.78;0.75;;;9.30;99.90;;;;;;5106952;27;20012;-75
2022/03/17 08:07:41;;;;;;;6.82;0.85;;;9.30;99.90;;;;;;5103429;27;20047;-76
2022/03/17 08:10:09;;;;;;;9.13;0.75;;;9.30;99.90;;;;;;5100243;27;20471;-75
2022/03/17 08:12:38;;;;;;;6.80;0.60;;;9.30;99.90;;;;;;5084208;27;20028;-76
2022/03/17 08:15:05;;;;;;;7.88;0.60;;;9.30;99.90;;;;;;5073272;27;20022;-75
2022/03/17 08:17:32;;;;;;;6.80;0.45;;;9.20;99.90;;;;;;5085389;27;20020;-75
2022/03/17 08:19:59;;;;;;;5.47;0.63;;;9.30;99.90;;;;;;5086264;27;20493;-76
2022/03/17 08:22:25;;;;;;;10.00;0.82;;;9.40;99.90;;;;;;5101363;27;20062;-75
2022/03/17 08:24:52;;;;;;;12.88;1.25;;;9.40;99.90;;;;;;5087358;27;20020;-75
2022/03/17 08:27:19;;;;;;;7.93;0.68;;;9.40;99.90;;;;;;5067362;27;20020;-75
2022/03/17 08:29:46;;;;;;;8.38;0.70;;;9.50;99.90;;;;;;5063079;27;20380;-75
2022/03/17 08:32:13;;;;;;;6.28;0.88;;;9.40;99.90;;;;;;5104603;27;20034;-76
2022/03/17 08:34:40;;;;;;;8.55;0.80;;;9.40;99.90;;;;;;5105650;27;20020;-75
2022/03/17 08:37:06;;;;;;;7.72;0.70;;;9.40;99.90;;;;;;5102012;27;20024;-76
2022/03/17 08:39:32;;;;;;;11.27;0.88;;;9.40;99.90;;;;;;5099291;27;20382;-75
2022/03/17 08:41:59;;;;;;;5.40;0.68;;;9.40;99.90;;;;;;5085487;27;20019;-75
2022/03/17 08:44:25;;;;;;;8.30;1.10;;;9.50;99.90;;;;;;5090503;27;20023;-75
2022/03/17 08:49:36;;;;;;;6.97;0.80;;;9.60;99.90;;;;;;5081580;27;20032;-76
2022/03/17 08:52:04;;;;;;;9.05;1.70;;;9.70;99.90;;;;;;5084361;27;20019;-75
2022/03/17 08:54:34;;;;;;;8.13;2.70;;;9.70;99.90;;;;;;5108100;27;20370;-75
2022/03/17 08:57:01;;;;;;;10.35;2.15;;;9.80;99.90;;;;;;5101555;27;20027;-76
2022/03/17 08:59:31;;;;;;;10.57;1.05;;;9.90;99.90;;;;;;5055524;27;20046;-77
2022/03/17 09:01:59;;;;;;;8.23;0.60;;;10.00;99.90;;;;;;5088382;27;20031;-75
2022/03/17 09:04:26;;;;;;;7.03;0.70;;;10.10;99.90;;;;;;5107371;27;20030;-76
2022/03/17 09:06:52;;;;;;;5.95;0.60;;;10.10;99.90;;;;;;5064500;27;20023;-76
2022/03/17 09:09:19;;;;;;;6.95;0.70;;;10.20;99.90;;;;;;5104243;27;20043;-76
2022/03/17 09:11:47;;;;;;;6.72;0.60;;;10.30;99.90;;;;;;5098190;27;20044;-76
2022/03/17 09:14:14;;;;;;;5.13;0.55;;;10.30;99.90;;;;;;5086162;27;20024;-76
2022/03/17 09:16:40;;;;;;;8.43;0.80;;;10.40;99.90;;;;;;5101880;27;20016;-76
2022/03/17 09:19:07;;;;;;;6.45;0.90;;;10.40;99.90;;;;;;5080068;27;20406;-76
2022/03/17 09:21:35;;;;;;;8.77;0.70;;;10.50;99.90;;;;;;5097938;27;20016;-76
2022/03/17 09:24:03;;;;;;;7.28;0.55;;;10.50;99.90;;;;;;5082192;27;20027;-76
2022/03/17 09:26:31;;;;;;;9.13;0.80;;;10.50;99.90;;;;;;5083914;27;20024;-76
2022/03/17 09:28:58;;;;;;;10.38;1.10;;;10.50;99.90;;;;;;5063448;28;20474;-76
2022/03/17 09:31:25;;;;;;;7.78;0.88;;;10.60;99.90;;;;;;5093888;27;20021;-76
2022/03/17 09:33:52;;;;;;;7.57;0.68;;;10.50;99.90;;;;;;5068451;27;20040;-75
2022/03/17 09:36:19;;;;;;;11.65;0.82;;;10.50;99.90;;;;;;5102059;27;20027;-76
2022/03/17 09:39:39;;;;;;;11.27;1.10;;;10.50;99.90;;;;;;5080494;28;20038;-76
2022/03/17 09:41:33;;;;;;;12.07;1.83;;;10.40;99.90;;;;;;5095770;27;20016;-76
2022/03/17 09:44:00;;;;;;;7.50;1.13;;;10.40;99.90;;;;;;5082450;27;20031;-77
2022/03/17 09:46:28;;;;;;;4.95;0.65;;;10.40;99.90;;;;;;5062844;27;20032;-76
2022/03/17 09:48:55;;;;;;;11.35;0.82;;;10.40;99.90;;;;;;5099936;27;20027;-76
2022/03/17 09:51:24;;;;;;;6.72;0.70;;;10.40;99.90;;;;;;5062679;27;20029;-76
2022/03/17 09:53:58;;;;;;;9.30;1.02;;;10.50;99.90;;;;;;5100629;27;20042;-76
2022/03/17 09:56:24;;;;;;;12.55;1.17;;;10.60;99.90;;;;;;5099851;27;20024;-76
2022/03/17 09:58:53;;;;;;;10.43;0.70;;;10.70;99.90;;;;;;5066870;28;20035;-76
2022/03/17 10:01:20;;;;;;;4.90;0.45;;;10.70;99.90;;;;;;5077954;27;20020;-76
2022/03/17 10:03:47;;;;;;;10.30;0.85;;;10.80;99.90;;;;;;5081881;28;20023;-77
2022/03/17 10:06:18;;;;;;;10.25;1.27;;;10.90;99.90;;;;;;5064887;27;20032;-76
2022/03/17 10:08:45;;;;;;;6.20;0.50;;;10.90;99.90;;;;;;5099406;27;20023;-76
2022/03/17 10:11:16;;;;;;;5.03;0.60;;;10.90;99.90;;;;;;5097204;27;20036;-76
2022/03/17 10:13:45;;;;;;;11.25;0.70;;;10.80;99.90;;;;;;5063941;27;20045;-76
2022/03/17 10:16:22;;;;;;;8.57;0.90;;;10.80;99.90;;;;;;5079374;28;20024;-76
2022/03/17 10:19:08;;;;;;;5.78;0.60;;;10.80;99.90;;;;;;5062585;28;20035;-76
2022/03/17 10:21:37;;;;;;;23.98;7.45;;;10.80;99.90;;;;;;5073366;28;20020;-75
2022/03/17 10:24:09;;;;;;;11.70;3.40;;;10.80;99.90;;;;;;5080281;28;20028;-77
2022/03/17 10:26:46;;;;;;;10.02;1.95;;;10.80;99.90;;;;;;5095237;27;20024;-77
2022/03/17 10:29:18;;;;;;;4.80;0.85;;;10.80;99.90;;;;;;5094451;27;22772;-76
2022/03/17 10:32:01;;;;;;;8.50;1.05;;;11.00;99.90;;;;;;5074693;27;20028;-77
2022/03/17 10:34:33;;;;;;;3.67;0.50;;;11.10;99.90;;;;;;5095435;27;20046;-76
2022/03/17 10:37:08;;;;;;;5.72;0.60;;;11.10;99.90;;;;;;5076275;27;20031;-76
2022/03/17 10:39:42;;;;;;;7.07;0.70;;;11.10;99.90;;;;;;5034114;28;20535;-77
2022/03/17 10:42:11;;;;;;;6.07;0.60;;;11.20;99.90;;;;;;5039845;28;20033;-76
2022/03/17 10:44:44;;;;;;;8.10;0.75;;;11.30;99.90;;;;;;5049157;28;20039;-76
2022/03/17 10:47:10;;;;;;;6.93;0.80;;;11.30;99.90;;;;;;5071730;27;20037;-76
2022/03/17 10:49:38;;;;;;;5.45;0.50;;;11.40;99.90;;;;;;5056681;27;20024;-77
2022/03/17 10:52:04;;;;;;;5.32;0.50;;;11.50;99.90;;;;;;5049170;28;20028;-76
2022/03/17 10:54:32;;;;;;;5.22;0.52;;;11.60;99.90;;;;;;5038885;28;20025;-76
2022/03/17 10:57:08;;;;;;;7.47;0.80;;;11.60;99.90;;;;;;5064981;27;20034;-77
2022/03/17 10:59:43;;;;;;;12.68;1.55;;;11.70;99.90;;;;;;5068467;27;20127;-76
2022/03/17 11:02:12;;;;;;;6.75;0.85;;;11.90;99.90;;;;;;5047029;28;20029;-76
2022/03/17 11:04:41;;;;;;;6.70;0.70;;;12.00;99.90;;;;;;5071709;27;20017;-76
2022/03/17 11:07:16;;;;;;;8.52;1.23;;;12.20;99.90;;;;;;5056540;27;20503;-77
2022/03/17 11:09:46;;;;;;;8.02;0.57;;;12.30;99.90;;;;;;5024890;28;20037;-77
2022/03/17 11:12:17;;;;;;;9.35;0.88;;;12.30;99.90;;;;;;5055264;28;20028;-76
2022/03/17 11:14:46;;;;;;;13.52;1.38;;;12.30;99.90;;;;;;5049443;28;20033;-77
2022/03/17 11:17:16;;;;;;;8.70;0.93;;;12.40;99.90;;;;;;5047649;28;20037;-77
2022/03/17 11:19:44;;;;;;;4.88;0.60;;;12.40;99.70;;;;;;5040973;28;20410;-77
2022/03/17 11:22:15;;;;;;;5.88;1.13;;;12.50;99.20;;;;;;5050174;28;20044;-76
2022/03/17 11:24:42;;;;;;;8.90;1.15;;;12.60;99.10;;;;;;5069653;27;20023;-77
2022/03/17 11:27:11;;;;;;;9.27;1.33;;;12.70;98.90;;;;;;5083692;27;20055;-77
2022/03/17 11:29:48;;;;;;;7.22;1.50;;;12.60;98.70;;;;;;5083823;27;20043;-77
2022/03/17 11:32:31;;;;;;;5.93;0.90;;;12.60;98.50;;;;;;5092597;27;20464;-77
2022/03/17 11:35:09;;;;;;;6.80;1.23;;;12.50;98.60;;;;;;5078405;27;20031;-76
2022/03/17 11:37:36;;;;;;;5.60;0.90;;;12.60;98.70;;;;;;5027652;28;20045;-77
2022/03/17 11:40:03;;;;;;;14.70;4.50;;;12.60;98.80;;;;;;5051421;28;20036;-78
2022/03/17 11:42:38;;;;;;;8.90;1.70;;;12.80;98.50;;;;;;5047760;28;20036;-76
2022/03/17 11:45:31;;;;;;;5.10;0.82;;;12.90;97.70;;;;;;5095962;27;20027;-77
2022/03/17 11:48:00;;;;;;;7.28;0.70;;;12.90;97.10;;;;;;5075016;28;20035;-77
2022/03/17 11:50:28;;;;;;;6.35;0.95;;;12.90;96.90;;;;;;5094040;27;20027;-76
2022/03/17 11:52:59;;;;;;;6.97;1.02;;;12.90;96.70;;;;;;5094384;27;20016;-77
2022/03/17 11:56:01;;;;;;;5.68;1.92;;;12.90;96.40;;;;;;5094798;28;20028;-77
2022/03/17 11:58:40;;;;;;;4.35;0.80;;;12.90;95.90;;;;;;5032300;28;21197;-76
2022/03/17 12:01:28;;;;;;;5.47;0.65;;;13.20;95.70;;;;;;5066097;28;20129;-75
2022/03/17 12:03:57;;;;;;;3.65;0.60;;;13.40;95.20;;;;;;5097846;28;20031;-76
2022/03/17 12:06:29;;;;;;;5.70;0.68;;;13.80;94.50;;;;;;5095863;28;20020;-77
2022/03/17 12:09:01;;;;;;;8.43;1.13;;;14.10;93.90;;;;;;5077410;28;20028;-77
2022/03/17 12:11:29;;;;;;;6.65;0.75;;;14.50;93.00;;;;;;5055021;28;20052;-78
2022/03/17 12:14:22;;;;;;;3.92;0.52;;;14.90;92.00;;;;;;5076730;28;20031;-78
2022/03/17 12:17:03;;;;;;;12.20;5.30;;;14.90;91.40;;;;;;5098178;28;20019;-78
2022/03/17 12:19:48;;;;;;;12.70;4.95;;;15.00;91.10;;;;;;5077731;28;20053;-79
2022/03/17 12:22:43;;;;;;;5.22;1.20;;;15.00;90.30;;;;;;5074339;28;20028;-77
2022/03/17 12:25:14;;;;;;;4.32;0.68;;;14.80;89.80;;;;;;5075368;28;20032;-77
2022/03/17 12:27:43;;;;;;;3.78;0.88;;;14.60;88.20;;;;;;5092339;28;20023;-78
2022/03/17 12:30:17;;;;;;;5.90;0.80;;;14.40;88.00;;;;;;5058861;28;20359;-79
2022/03/17 12:32:51;;;;;;;3.53;0.70;;;14.30;87.50;;;;;;5056334;28;20032;-78
2022/03/17 12:35:34;;;;;;;6.38;0.90;;;14.70;88.10;;;;;;5078416;28;20024;-78
2022/03/17 12:38:09;;;;;;;;;;;15.20;85.90;;;;;;5094597;28;20016;-78
2022/03/17 12:40:43;;;;;;;6.07;1.05;;;15.50;84.70;;;;;;5075556;28;19935;-78
2022/03/17 12:43:15;;;;;;;6.32;0.73;;;15.60;82.90;;;;;;5094320;28;20459;-79
2022/03/17 12:45:43;;;;;;;7.63;0.80;;;15.70;82.60;;;;;;5098195;27;20475;-79
2022/03/17 12:48:10;;;;;;;4.07;1.00;;;16.10;83.70;;;;;;5099523;27;20616;-79
2022/03/17 12:50:37;;;;;;;3.80;0.57;;;16.70;80.60;;;;;;5079349;28;20036;-79
2022/03/17 12:53:03;;;;;;;4.20;0.63;;;17.50;80.00;;;;;;5097596;27;20032;-79
2022/03/17 12:55:30;;;;;;;4.00;0.52;;;18.50;76.50;;;;;;5083415;27;20450;-79
2022/03/17 12:57:57;;;;;;;3.53;0.70;;;19.00;73.10;;;;;;5077806;27;20028;-79
2022/03/17 13:00:24;;;;;;;4.03;0.50;;;19.00;68.80;;;;;;5058333;28;20023;-79
2022/03/17 13:02:56;;;;;;;11.98;0.70;;;18.40;68.40;;;;;;5080016;27;20473;-78